Time;durP1;ratioP1;P1;durP2;ratioP2;P2;SDS_P1;SDS_P2;PMS_P1;PMS_P2;Temp;Humidity;BMP_temperature;BMP_pressure;BME280_temperature;BME280_humidity;BME280_pressure;Samples;Min_cycle;Max_cycle;Signal;HPM_P1;HPM_P2
2023/06/30 03:30:47;;;;;;;;;;;18.00;99.90;;;;;;4590182;19;20332;-22
2023/06/30 03:32:18;;;;;;;;;;;18.00;99.90;;;;;;4591163;19;19982;-21
2023/06/30 03:33:50;;;;;;;;;;;18.00;99.90;;;;;;4592124;19;20259;-23
2023/06/30 03:35:21;;;;;;;;;;;18.10;99.90;;;;;;4592363;19;19925;-24
2023/06/30 03:36:53;;;;;;;;;;;18.10;99.90;;;;;;4591592;19;19936;-24
2023/06/30 03:38:25;;;;;;;;;;;18.10;99.90;;;;;;4591455;19;19923;-23
2023/06/30 03:39:56;;;;;;;;;;;18.10;99.90;;;;;;4591442;19;19914;-29
2023/06/30 03:41:27;;;;;;;;;;;18.20;99.90;;;;;;4589385;19;19918;-22
2023/06/30 03:42:58;;;;;;;;;;;18.20;99.90;;;;;;4590291;19;19919;-23
2023/06/30 03:44:29;;;;;;;;;;;18.20;99.90;;;;;;4590440;19;19915;-23
2023/06/30 03:46:02;;;;;;;;;;;18.30;99.90;;;;;;4590296;19;19922;-29
2023/06/30 03:47:33;;;;;;;;;;;18.30;99.90;;;;;;4589399;19;19918;-24
2023/06/30 03:49:04;;;;;;;;;;;18.30;99.90;;;;;;4590433;19;20261;-23
2023/06/30 03:50:35;;;;;;;;;;;18.40;99.90;;;;;;4592028;19;19924;-23
2023/06/30 03:52:06;;;;;;;;;;;18.40;99.90;;;;;;4590215;19;19918;-22
2023/06/30 03:53:37;;;;;;;;;;;18.40;99.90;;;;;;4590253;19;19970;-29
2023/06/30 03:55:23;;;;;;;;;;;18.30;99.90;;;;;;4590361;19;19978;-21
2023/06/30 03:56:57;;;;;;;;;;;18.40;99.90;;;;;;4590404;19;20260;-23
2023/06/30 03:58:28;;;;;;;;;;;18.40;99.90;;;;;;4590646;19;19918;-22
2023/06/30 04:00:00;;;;;;;;;;;18.40;99.90;;;;;;4590107;19;20063;-23
2023/06/30 04:01:33;;;;;;;;;;;18.40;99.90;;;;;;4590193;19;19946;-22
2023/06/30 04:03:05;;;;;;;;;;;18.40;99.90;;;;;;4591184;19;19918;-25
2023/06/30 04:04:37;;;;;;;;;;;18.40;99.90;;;;;;4590978;19;19926;-28
2023/06/30 04:06:09;;;;;;;;;;;18.40;99.90;;;;;;4590819;19;20343;-24
2023/06/30 04:07:40;;;;;;;;;;;18.40;99.90;;;;;;4591220;19;19952;-23
2023/06/30 04:09:11;;;;;;;;;;;18.40;99.90;;;;;;4591349;19;19937;-23
2023/06/30 04:10:43;;;;;;;;;;;18.40;99.90;;;;;;4590922;19;20013;-23
2023/06/30 04:12:15;;;;;;;;;;;18.40;99.90;;;;;;4589814;19;20244;-23
2023/06/30 04:13:47;;;;;;;;;;;18.40;99.90;;;;;;4589917;19;19930;-26
2023/06/30 04:15:18;;;;;;;;;;;18.40;99.90;;;;;;4589962;19;19925;-24
2023/06/30 04:16:49;;;;;;;;;;;18.40;99.90;;;;;;4588192;19;19923;-23
2023/06/30 04:18:21;;;;;;;;;;;18.40;99.90;;;;;;4588629;19;19915;-23
2023/06/30 04:19:53;;;;;;;;;;;18.40;99.90;;;;;;4589017;19;19918;-22
2023/06/30 04:21:24;;;;;;;;;;;18.40;99.90;;;;;;4591209;19;19921;-23
2023/06/30 04:22:55;;;;;;;;;;;18.40;99.90;;;;;;4589559;19;19924;-23
2023/06/30 04:24:27;;;;;;;;;;;18.40;99.90;;;;;;4590351;19;20256;-23
2023/06/30 04:25:58;;;;;;;;;;;18.40;99.90;;;;;;4588302;19;19919;-27
2023/06/30 04:27:29;;;;;;;;;;;18.40;99.90;;;;;;4587519;19;20279;-26
2023/06/30 04:29:02;;;;;;;;;;;18.40;99.90;;;;;;4588273;19;19929;-25
2023/06/30 04:30:33;;;;;;;;;;;18.40;99.90;;;;;;4588313;19;20381;-22
2023/06/30 04:32:05;;;;;;;;;;;18.40;99.90;;;;;;4591572;19;19910;-23
2023/06/30 04:33:36;;;;;;;;;;;18.40;99.90;;;;;;4590946;19;20249;-26
2023/06/30 04:35:07;;;;;;;;;;;18.50;99.90;;;;;;4590766;19;19935;-22
2023/06/30 04:36:38;;;;;;;;;;;18.50;99.90;;;;;;4590594;19;19926;-23
2023/06/30 04:38:10;;;;;;;;;;;18.50;99.90;;;;;;4588796;19;20249;-22
2023/06/30 04:39:42;;;;;;;;;;;18.50;99.90;;;;;;4588552;19;19964;-23
2023/06/30 04:41:13;;;;;;;;;;;18.60;99.90;;;;;;4589170;19;19974;-24
2023/06/30 04:42:44;;;;;;;;;;;18.60;99.90;;;;;;4589436;19;20328;-24
2023/06/30 04:44:16;;;;;;;;;;;18.60;99.90;;;;;;4587611;19;20360;-23
2023/06/30 04:45:47;;;;;;;;;;;18.70;99.90;;;;;;4591397;19;19922;-23
2023/06/30 04:47:19;;;;;;;;;;;18.70;99.90;;;;;;4591488;19;19926;-24
2023/06/30 04:48:50;;;;;;;;;;;18.70;99.90;;;;;;4591251;19;19923;-26
2023/06/30 04:50:23;;;;;;;;;;;18.80;99.90;;;;;;4589378;19;19914;-24
2023/06/30 04:51:54;;;;;;;;;;;18.80;99.90;;;;;;4590039;19;19933;-24
2023/06/30 04:53:25;;;;;;;;;;;18.80;99.90;;;;;;4594031;19;19919;-26
2023/06/30 04:54:57;;;;;;;;;;;18.80;99.90;;;;;;4594164;19;19947;-23
2023/06/30 04:56:28;;;;;;;;;;;18.90;99.90;;;;;;4594737;19;19929;-22
2023/06/30 04:57:59;;;;;;;;;;;18.90;99.90;;;;;;4593566;19;19926;-28
2023/06/30 04:59:30;;;;;;;;;;;18.90;99.90;;;;;;4593031;19;19919;-24
2023/06/30 05:01:04;;;;;;;;;;;18.90;99.90;;;;;;4593362;19;19922;-22
2023/06/30 05:02:35;;;;;;;;;;;19.00;99.90;;;;;;4592314;19;20328;-23
2023/06/30 05:04:07;;;;;;;;;;;19.00;99.90;;;;;;4592075;19;19923;-23
2023/06/30 05:05:39;;;;;;;;;;;19.00;99.90;;;;;;4593217;19;19919;-25
2023/06/30 05:07:10;;;;;;;;;;;19.00;99.90;;;;;;4594573;19;19935;-23
2023/06/30 05:08:43;;;;;;;;;;;19.00;99.90;;;;;;4594836;19;19939;-23
2023/06/30 05:10:14;;;;;;;;;;;19.00;99.90;;;;;;4593982;19;19919;-23
2023/06/30 05:11:45;;;;;;;;;;;19.00;99.90;;;;;;4594465;19;19922;-23
2023/06/30 05:13:17;;;;;;;;;;;19.00;99.90;;;;;;4594378;19;19945;-23
2023/06/30 05:14:50;;;;;;;;;;;19.00;99.90;;;;;;4593023;19;19919;-23
2023/06/30 05:16:22;;;;;;;;;;;19.00;99.90;;;;;;4592706;19;20267;-23
2023/06/30 05:17:54;;;;;;;;;;;19.00;99.90;;;;;;4591192;19;19919;-26
2023/06/30 05:19:25;;;;;;;;;;;19.10;99.90;;;;;;4591141;19;19923;-22
2023/06/30 05:20:56;;;;;;;;;;;19.10;99.90;;;;;;4592000;19;20360;-23
2023/06/30 05:22:27;;;;;;;;;;;19.10;99.90;;;;;;4595272;19;19923;-25
2023/06/30 05:23:58;;;;;;;;;;;19.10;99.90;;;;;;4594970;19;19953;-24
2023/06/30 05:25:31;;;;;;;;;;;19.10;99.90;;;;;;4594249;19;19911;-24
2023/06/30 05:27:02;;;;;;;;;;;19.10;99.90;;;;;;4590126;19;19914;-22
2023/06/30 05:28:36;;;;;;;;;;;19.10;99.90;;;;;;4593700;19;19930;-21
2023/06/30 05:30:08;;;;;;;;;;;19.10;99.90;;;;;;4592593;19;19923;-25
2023/06/30 05:31:39;;;;;;;;;;;19.10;99.90;;;;;;4593160;19;20272;-22
2023/06/30 05:33:10;;;;;;;;;;;19.10;99.90;;;;;;4592750;19;19923;-26
2023/06/30 05:34:41;;;;;;;;;;;19.20;99.90;;;;;;4593845;19;19925;-24
2023/06/30 05:36:13;;;;;;;;;;;19.20;99.90;;;;;;4593305;19;20256;-22
2023/06/30 05:37:44;;;;;;;;;;;19.20;99.90;;;;;;4591559;19;19944;-21
2023/06/30 05:39:15;;;;;;;;;;;19.20;99.90;;;;;;4592415;19;19923;-24
2023/06/30 05:40:46;;;;;;;;;;;19.20;99.90;;;;;;4592750;19;20259;-21
2023/06/30 05:42:17;;;;;;;;;;;19.20;99.90;;;;;;4595130;19;20329;-23
2023/06/30 05:43:50;;;;;;;;;;;19.20;99.90;;;;;;4594652;19;19919;-26
2023/06/30 05:45:21;;;;;;;;;;;19.20;99.90;;;;;;4594762;19;20252;-22
2023/06/30 05:46:52;;;;;;;;;;;19.30;99.90;;;;;;4593911;19;19922;-25
2023/06/30 05:48:24;;;;;;;;;;;19.30;99.90;;;;;;4593415;19;19926;-27
2023/06/30 05:49:55;;;;;;;;;;;19.30;99.90;;;;;;4591977;19;19918;-23
2023/06/30 05:51:26;;;;;;;;;;;19.30;99.90;;;;;;4591671;19;20268;-24
2023/06/30 05:52:58;;;;;;;;;;;19.30;99.90;;;;;;4592269;19;20312;-23
2023/06/30 05:54:29;;;;;;;;;;;19.30;99.90;;;;;;4591061;19;19922;-22
2023/06/30 05:56:00;;;;;;;;;;;19.40;99.90;;;;;;4590784;19;20317;-23
2023/06/30 05:57:31;;;;;;;;;;;19.40;99.90;;;;;;4593589;19;19982;-25
2023/06/30 05:59:03;;;;;;;;;;;19.50;99.90;;;;;;4593181;19;19944;-25
2023/06/30 06:00:34;;;;;;;;;;;19.50;99.90;;;;;;4592748;19;19956;-24
2023/06/30 06:02:05;;;;;;;;;;;19.50;99.90;;;;;;4593200;19;19915;-23
2023/06/30 06:03:39;;;;;;;;;;;19.50;99.90;;;;;;4592106;19;20245;-23
2023/06/30 06:05:11;;;;;;;;;;;19.50;99.90;;;;;;4592534;19;20355;-23
2023/06/30 06:06:42;;;;;;;;;;;19.50;99.90;;;;;;4592344;19;19911;-25
2023/06/30 06:08:14;;;;;;;;;;;19.50;99.90;;;;;;4592156;19;19945;-21
2023/06/30 06:09:45;;;;;;;;;;;19.50;99.90;;;;;;4590248;19;19917;-22
2023/06/30 06:11:16;;;;;;;;;;;19.50;99.90;;;;;;4591866;19;19915;-23
2023/06/30 06:12:50;;;;;;;;;;;19.50;99.90;;;;;;4593507;19;19915;-29
2023/06/30 06:14:52;;;;;;;;;;;;;;;;;;;;;
2023/06/30 06:16:44;;;;;;;;;;;19.50;99.90;;;;;;4591222;19;19915;-23
2023/06/30 06:18:15;;;;;;;;;;;19.50;99.90;;;;;;4592214;19;19946;-23
2023/06/30 06:19:47;;;;;;;;;;;19.50;99.90;;;;;;4593208;19;20325;-23
2023/06/30 06:21:20;;;;;;;;;;;19.60;99.90;;;;;;4594002;19;19915;-23
2023/06/30 06:22:51;;;;;;;;;;;19.60;99.90;;;;;;4593869;19;20267;-24
2023/06/30 06:24:22;;;;;;;;;;;19.60;99.90;;;;;;4593236;19;19919;-23
2023/06/30 06:25:53;;;;;;;;;;;19.60;99.90;;;;;;4593410;19;19911;-22
2023/06/30 06:27:25;;;;;;;;;;;19.60;99.90;;;;;;4592196;19;19922;-25
2023/06/30 06:28:56;;;;;;;;;;;19.60;99.90;;;;;;4593862;19;19926;-23
2023/06/30 06:30:27;;;;;;;;;;;19.70;99.90;;;;;;4591267;19;19970;-23
2023/06/30 06:31:58;;;;;;;;;;;19.60;99.90;;;;;;4593220;19;19925;-23
2023/06/30 06:33:30;;;;;;;;;;;19.70;99.90;;;;;;4593359;19;19921;-22
2023/06/30 06:35:04;;;;;;;;;;;19.70;99.90;;;;;;4594061;19;19918;-21
2023/06/30 06:36:38;;;;;;;;;;;19.70;99.90;;;;;;4591792;19;19918;-22
2023/06/30 06:38:09;;;;;;;;;;;19.70;99.90;;;;;;4592754;19;19929;-26
2023/06/30 06:39:42;;;;;;;;;;;19.70;99.90;;;;;;4592317;19;20343;-22
2023/06/30 06:41:16;;;;;;;;;;;19.70;99.90;;;;;;4593122;19;19922;-26
2023/06/30 06:42:47;;;;;;;;;;;19.80;99.90;;;;;;4591873;19;19919;-23
2023/06/30 06:44:18;;;;;;;;;;;19.80;99.90;;;;;;4591824;19;19925;-23
2023/06/30 06:45:50;;;;;;;;;;;19.70;99.90;;;;;;4593267;19;19986;-23
2023/06/30 06:47:39;;;;;;;;;;;19.80;99.90;;;;;;4591603;19;19907;-22
2023/06/30 06:49:12;;;;;;;;;;;19.80;99.90;;;;;;4591621;19;19915;-22
2023/06/30 06:50:48;;;;;;;;;;;19.80;99.90;;;;;;4592752;19;20318;-28
2023/06/30 06:52:20;;;;;;;;;;;19.90;99.90;;;;;;4593461;19;19941;-24
2023/06/30 06:53:51;;;;;;;;;;;19.80;99.90;;;;;;4593281;19;19919;-22
2023/06/30 06:55:23;;;;;;;;;;;19.90;99.90;;;;;;4591416;19;20315;-23
2023/06/30 06:56:54;;;;;;;;;;;19.80;99.90;;;;;;4591709;19;19919;-22
2023/06/30 06:58:40;;;;;;;;;;;19.90;99.90;;;;;;4592577;19;19921;-28
2023/06/30 07:00:11;;;;;;;;;;;19.90;99.90;;;;;;4592202;19;19998;-22
2023/06/30 07:01:42;;;;;;;;;;;20.00;99.90;;;;;;4591266;19;20325;-23
2023/06/30 07:03:13;;;;;;;;;;;19.90;99.90;;;;;;4591238;19;19928;-21
2023/06/30 07:04:45;;;;;;;;;;;20.00;99.90;;;;;;4592062;19;20012;-22
2023/06/30 07:06:16;;;;;;;;;;;20.00;99.90;;;;;;4592675;19;19929;-22
2023/06/30 07:07:47;;;;;;;;;;;20.00;99.90;;;;;;4592448;19;19922;-23
2023/06/30 07:09:18;;;;;;;;;;;20.00;99.90;;;;;;4591515;19;19929;-22
2023/06/30 07:10:50;;;;;;;;;;;20.00;99.90;;;;;;4592435;19;19949;-24
2023/06/30 07:12:21;;;;;;;;;;;20.00;99.90;;;;;;4592514;19;19989;-22
2023/06/30 07:13:52;;;;;;;;;;;20.00;99.90;;;;;;4592049;19;19919;-22
2023/06/30 07:15:25;;;;;;;;;;;20.00;99.90;;;;;;4590153;19;19919;-22
2023/06/30 07:16:56;;;;;;;;;;;20.00;99.90;;;;;;4592162;19;19914;-23
2023/06/30 07:18:27;;;;;;;;;;;20.00;99.90;;;;;;4592114;19;19919;-27
2023/06/30 07:19:58;;;;;;;;;;;20.00;99.90;;;;;;4592023;19;19932;-23
2023/06/30 07:21:31;;;;;;;;;;;20.10;99.90;;;;;;4591198;19;20241;-23
2023/06/30 07:23:02;;;;;;;;;;;20.00;99.90;;;;;;4592480;19;20244;-27
2023/06/30 07:24:33;;;;;;;;;;;20.10;99.90;;;;;;4591922;19;19949;-21
2023/06/30 07:26:04;;;;;;;;;;;20.00;99.90;;;;;;4592495;19;19914;-22
2023/06/30 07:27:39;;;;;;;;;;;20.10;99.90;;;;;;4592554;19;19914;-24
2023/06/30 07:29:10;;;;;;;;;;;20.00;99.90;;;;;;4592621;19;20376;-26
2023/06/30 07:30:41;;;;;;;;;;;20.00;99.90;;;;;;4591287;19;19919;-27
2023/06/30 07:32:12;;;;;;;;;;;20.00;99.90;;;;;;4592005;19;19911;-23
2023/06/30 07:33:43;;;;;;;;;;;20.00;99.90;;;;;;4590581;19;19982;-23
2023/06/30 07:35:14;;;;;;;;;;;20.10;99.90;;;;;;4591333;19;20335;-25
2023/06/30 07:36:46;;;;;;;;;;;20.00;99.90;;;;;;4591945;19;19918;-23
2023/06/30 07:38:17;;;;;;;;;;;20.10;99.90;;;;;;4590745;19;19922;-26
2023/06/30 07:39:48;;;;;;;;;;;20.10;99.90;;;;;;4590966;19;19911;-27
2023/06/30 07:41:19;;;;;;;;;;;20.10;99.90;;;;;;4590402;19;19914;-26
2023/06/30 07:42:53;;;;;;;;;;;20.10;99.90;;;;;;4590655;19;19977;-23
2023/06/30 07:44:24;;;;;;;;;;;20.00;99.90;;;;;;4591503;19;19919;-23
2023/06/30 07:45:56;;;;;;;;;;;20.10;99.90;;;;;;4592312;19;19918;-22
2023/06/30 07:47:28;;;;;;;;;;;20.10;99.90;;;;;;4591366;19;20339;-25
2023/06/30 07:48:59;;;;;;;;;;;20.10;99.90;;;;;;4591890;19;19915;-23
2023/06/30 07:50:30;;;;;;;;;;;20.10;99.90;;;;;;4591693;19;19923;-22
2023/06/30 07:52:02;;;;;;;;;;;20.10;99.90;;;;;;4592006;19;20260;-22
2023/06/30 07:53:33;;;;;;;;;;;20.10;99.90;;;;;;4590162;19;19914;-25
2023/06/30 07:55:07;;;;;;;;;;;20.10;99.90;;;;;;4591472;19;19919;-25
2023/06/30 07:56:39;;;;;;;;;;;20.10;99.90;;;;;;4590373;19;20244;-24
2023/06/30 07:58:10;;;;;;;;;;;20.10;99.90;;;;;;4590151;19;19918;-23
2023/06/30 07:59:41;;;;;;;;;;;20.10;99.90;;;;;;4591223;19;19929;-24
2023/06/30 08:01:13;;;;;;;;;;;20.10;99.90;;;;;;4590765;19;19922;-23
2023/06/30 08:02:44;;;;;;;;;;;20.10;99.90;;;;;;4591242;19;19915;-23
2023/06/30 08:04:32;;;;;;;;;;;20.10;99.90;;;;;;4591422;19;20248;-22
2023/06/30 08:06:03;;;;;;;;;;;20.10;99.90;;;;;;4591449;19;19975;-26
2023/06/30 08:07:34;;;;;;;;;;;20.10;99.90;;;;;;4591565;19;19922;-23
2023/06/30 08:09:05;;;;;;;;;;;20.10;99.90;;;;;;4590245;19;20359;-28
2023/06/30 08:10:37;;;;;;;;;;;20.10;99.90;;;;;;4589696;19;19951;-29
2023/06/30 08:12:08;;;;;;;;;;;20.10;99.90;;;;;;4591018;19;20260;-26
2023/06/30 08:13:39;;;;;;;;;;;20.10;99.90;;;;;;4590540;19;19918;-27
2023/06/30 08:15:12;;;;;;;;;;;20.10;99.90;;;;;;4590730;19;19914;-27
2023/06/30 08:16:45;;;;;;;;;;;20.20;99.90;;;;;;4589804;19;19951;-28
2023/06/30 08:18:16;;;;;;;;;;;20.20;99.90;;;;;;4590610;19;19915;-27
2023/06/30 08:19:48;;;;;;;;;;;20.20;99.90;;;;;;4591558;19;20252;-22
2023/06/30 08:21:25;;;;;;;;;;;20.20;99.90;;;;;;4590184;19;19918;-22
2023/06/30 08:23:00;;;;;;;;;;;20.20;99.90;;;;;;4589955;19;19921;-22
2023/06/30 08:24:32;;;;;;;;;;;20.20;99.90;;;;;;4591029;19;20300;-23
2023/06/30 08:26:05;;;;;;;;;;;20.20;99.90;;;;;;4590150;19;19922;-26
2023/06/30 08:27:36;;;;;;;;;;;20.20;99.90;;;;;;4592081;19;19914;-22
2023/06/30 08:29:08;;;;;;;;;;;20.20;99.90;;;;;;4595354;19;19978;-23
2023/06/30 08:30:40;;;;;;;;;;;20.20;99.90;;;;;;4593347;19;19927;-27
2023/06/30 08:32:11;;;;;;;;;;;20.20;99.90;;;;;;4595905;19;19953;-23
2023/06/30 08:33:44;;;;;;;;;;;20.20;99.90;;;;;;4595644;19;19933;-27
2023/06/30 08:35:15;;;;;;;;;;;20.20;99.90;;;;;;4594264;19;19919;-25
2023/06/30 08:36:46;;;;;;;;;;;20.20;99.90;;;;;;4593283;19;19918;-26
2023/06/30 08:38:17;;;;;;;;;;;20.20;99.90;;;;;;4595326;19;19925;-28
2023/06/30 08:39:50;;;;;;;;;;;20.20;99.90;;;;;;4594309;19;20245;-22
2023/06/30 08:41:24;;;;;;;;;;;20.20;99.90;;;;;;4594066;19;19918;-23
2023/06/30 08:42:58;;;;;;;;;;;20.20;99.90;;;;;;4594252;19;19922;-25
2023/06/30 08:44:29;;;;;;;;;;;20.20;99.90;;;;;;4594297;19;19919;-23
2023/06/30 08:46:03;;;;;;;;;;;20.30;99.90;;;;;;4593817;19;20015;-23
2023/06/30 08:47:36;;;;;;;;;;;20.30;99.90;;;;;;4593762;19;20227;-21
2023/06/30 08:49:07;;;;;;;;;;;20.30;99.90;;;;;;4594217;19;19978;-22
2023/06/30 08:50:38;;;;;;;;;;;20.30;99.90;;;;;;4595338;19;19914;-22
2023/06/30 08:52:10;;;;;;;;;;;20.30;99.90;;;;;;4593900;19;20017;-22
2023/06/30 08:53:41;;;;;;;;;;;20.30;99.90;;;;;;4594715;19;19947;-21
2023/06/30 08:55:12;;;;;;;;;;;20.30;99.90;;;;;;4595485;19;19942;-21
2023/06/30 08:56:44;;;;;;;;;;;20.30;99.90;;;;;;4595511;19;19918;-22
2023/06/30 09:00:38;;;;;;;;;;;20.30;99.90;;;;;;4595700;19;20455;-22
2023/06/30 09:02:13;;;;;;;;;;;20.30;99.90;;;;;;4594963;19;20339;-23
2023/06/30 09:03:47;;;;;;;;;;;20.60;99.90;;;;;;4593618;19;20398;-21
2023/06/30 09:05:19;;;;;;;;;;;20.90;99.90;;;;;;4594089;19;19923;-23
2023/06/30 09:06:54;;;;;;;;;;;21.10;99.90;;;;;;4594387;19;19922;-26
2023/06/30 09:08:43;;;;;;;;;;;21.30;99.90;;;;;;4593563;19;19922;-22
2023/06/30 09:10:14;;;;;;;;;;;21.50;99.90;;;;;;4594426;19;19978;-26
2023/06/30 09:11:45;;;;;;;;;;;21.70;99.90;;;;;;4595474;19;19988;-21
2023/06/30 09:13:18;;;;;;;;;;;21.90;99.90;;;;;;4594825;19;19914;-25
2023/06/30 09:14:49;;;;;;;;;;;22.00;99.90;;;;;;4593510;19;19947;-25
2023/06/30 09:16:22;;;;;;;;;;;22.10;99.90;;;;;;4593459;19;19918;-24
2023/06/30 09:17:54;;;;;;;;;;;22.20;99.90;;;;;;4592073;19;19931;-22
2023/06/30 09:19:25;;;;;;;;;;;22.20;99.90;;;;;;4593899;19;19914;-22
2023/06/30 09:20:56;;;;;;;;;;;22.30;99.90;;;;;;4593958;19;20238;-26
2023/06/30 09:22:27;;;;;;;;;;;22.40;99.90;;;;;;4593161;19;19928;-28
2023/06/30 09:23:59;;;;;;;;;;;22.50;99.90;;;;;;4594276;19;20262;-27
2023/06/30 09:25:35;;;;;;;;;;;22.60;99.90;;;;;;4594236;19;19918;-24
2023/06/30 09:27:06;;;;;;;;;;;22.60;99.90;;;;;;4593056;19;19925;-27
2023/06/30 09:28:44;;;;;;;;;;;22.60;99.90;;;;;;4592840;19;19919;-27
2023/06/30 09:30:15;;;;;;;;;;;22.70;99.90;;;;;;4592906;19;19930;-26
2023/06/30 09:31:49;;;;;;;;;;;22.80;99.90;;;;;;4593927;19;19915;-21
2023/06/30 09:33:23;;;;;;;;;;;22.90;99.90;;;;;;4594701;19;19914;-23
2023/06/30 09:34:54;;;;;;;;;;;23.10;99.90;;;;;;4593548;19;19929;-23
2023/06/30 09:36:25;;;;;;;;;;;23.20;99.90;;;;;;4593831;19;20285;-23
2023/06/30 09:37:56;;;;;;;;;;;23.30;99.90;;;;;;4592361;19;19915;-23
2023/06/30 09:39:27;;;;;;;;;;;23.30;99.90;;;;;;4594012;19;19946;-22
2023/06/30 09:41:32;;;;;;;;;;;23.40;99.90;;;;;;4593011;19;19919;-23
2023/06/30 09:44:55;;;;;;;;;;;23.60;99.90;;;;;;4594093;19;19919;-23
2023/06/30 09:46:44;;;;;;;;;;;23.60;99.90;;;;;;4592912;19;19970;-24
2023/06/30 09:48:15;;;;;;;;;;;23.60;99.90;;;;;;4593962;19;19915;-22
2023/06/30 09:49:46;;;;;;;;;;;23.70;99.90;;;;;;4593202;19;20372;-22
2023/06/30 09:51:19;;;;;;;;;;;23.70;99.90;;;;;;4593300;19;19973;-23
2023/06/30 09:52:50;;;;;;;;;;;23.70;99.90;;;;;;4593232;19;19919;-23
2023/06/30 09:54:21;;;;;;;;;;;23.70;99.90;;;;;;4592714;19;19923;-23
2023/06/30 09:55:54;;;;;;;;;;;23.70;99.90;;;;;;4592867;19;19918;-29
2023/06/30 09:57:26;;;;;;;;;;;23.80;99.90;;;;;;4592225;19;19911;-22
2023/06/30 09:58:57;;;;;;;;;;;23.80;99.90;;;;;;4593401;19;19974;-27
2023/06/30 10:00:29;;;;;;;;;;;23.80;99.90;;;;;;4594116;19;19918;-23
2023/06/30 10:02:00;;;;;;;;;;;23.80;99.90;;;;;;4594190;19;19934;-25
2023/06/30 10:03:32;;;;;;;;;;;23.80;99.90;;;;;;4594371;19;20261;-22
2023/06/30 10:05:05;;;;;;;;;;;23.80;99.90;;;;;;4592861;19;19918;-22
2023/06/30 10:06:36;;;;;;;;;;;23.80;99.90;;;;;;4592428;19;19974;-24
2023/06/30 10:08:07;;;;;;;;;;;23.80;99.90;;;;;;4593340;19;20260;-23
2023/06/30 10:09:38;;;;;;;;;;;23.80;99.90;;;;;;4593727;19;19928;-23
2023/06/30 10:11:09;;;;;;;;;;;23.80;99.90;;;;;;4592524;19;19914;-22
2023/06/30 10:12:41;;;;;;;;;;;23.80;99.90;;;;;;4593646;19;19925;-26
2023/06/30 10:14:13;;;;;;;;;;;23.80;99.90;;;;;;4592660;19;19932;-25
2023/06/30 10:15:44;;;;;;;;;;;23.80;99.90;;;;;;4592636;19;19937;-26
2023/06/30 10:17:15;;;;;;;;;;;23.80;99.90;;;;;;4591893;19;19927;-25
2023/06/30 10:18:47;;;;;;;;;;;23.80;99.90;;;;;;4592621;19;19918;-22
2023/06/30 10:20:18;;;;;;;;;;;23.80;99.90;;;;;;4593305;19;20321;-22
2023/06/30 10:21:49;;;;;;;;;;;23.80;99.90;;;;;;4592286;19;19926;-26
2023/06/30 10:23:20;;;;;;;;;;;23.80;99.90;;;;;;4592392;19;20335;-25
2023/06/30 10:24:53;;;;;;;;;;;23.80;99.90;;;;;;4593266;19;19921;-27
2023/06/30 10:26:24;;;;;;;;;;;23.80;99.90;;;;;;4593009;19;19918;-28
2023/06/30 10:27:55;;;;;;;;;;;23.80;99.90;;;;;;4592216;19;20241;-25
2023/06/30 10:29:26;;;;;;;;;;;23.80;99.90;;;;;;4592802;19;19937;-23
2023/06/30 10:30:59;;;;;;;;;;;23.80;99.90;;;;;;4592238;19;19919;-22
2023/06/30 10:32:30;;;;;;;;;;;23.80;99.90;;;;;;4593228;19;19941;-23
2023/06/30 10:34:02;;;;;;;;;;;23.80;99.90;;;;;;4592037;19;19923;-24
2023/06/30 10:35:33;;;;;;;;;;;23.80;99.90;;;;;;4592398;19;19921;-26
2023/06/30 10:37:04;;;;;;;;;;;23.80;99.90;;;;;;4592306;19;19914;-22
2023/06/30 10:38:35;;;;;;;;;;;23.80;99.90;;;;;;4591807;19;19929;-23
2023/06/30 10:40:28;;;;;;;;;;;23.80;99.90;;;;;;4592773;19;19923;-22
2023/06/30 10:41:58;;;;;;;;;;;23.80;99.90;;;;;;4592900;19;20351;-25
2023/06/30 10:43:33;;;;;;;;;;;23.80;99.90;;;;;;4569669;19;19911;-23
2023/06/30 10:45:05;;;;;;;;;;;22.70;99.90;;;;;;4592135;19;19926;-26
2023/06/30 10:46:53;;;;;;;;;;;21.60;99.90;;;;;;4592062;19;19938;-24
2023/06/30 10:48:26;;;;;;;;;;;21.00;99.90;;;;;;4592060;19;19918;-21
2023/06/30 10:49:57;;;;;;;;;;;20.60;99.90;;;;;;4591323;19;19991;-21
2023/06/30 10:51:36;;;;;;;;;;;20.50;99.90;;;;;;4591403;19;19922;-23
2023/06/30 10:53:06;;;;;;;;;;;20.40;99.90;;;;;;4592465;19;19915;-27
2023/06/30 10:54:38;;;;;;;;;;;20.30;99.90;;;;;;4591604;19;19911;-22
2023/06/30 10:56:11;;;;;;;;;;;20.30;99.90;;;;;;4592251;19;19914;-22
2023/06/30 10:57:42;;;;;;;;;;;20.30;99.90;;;;;;4591595;19;19922;-22
2023/06/30 10:59:17;;;;;;;;;;;20.30;99.90;;;;;;4591563;19;19922;-22
2023/06/30 11:01:04;;;;;;;;;;;20.30;99.90;;;;;;4592317;19;19978;-26
2023/06/30 11:02:35;;;;;;;;;;;20.40;99.90;;;;;;4592698;19;20256;-22
2023/06/30 11:04:10;;;;;;;;;;;20.40;99.90;;;;;;4592756;19;19919;-22
2023/06/30 11:05:42;;;;;;;;;;;20.40;99.90;;;;;;4591190;19;19935;-25
2023/06/30 11:07:17;;;;;;;;;;;20.40;99.90;;;;;;4591947;19;19914;-25
2023/06/30 11:09:01;;;;;;;;;;;20.40;99.90;;;;;;4591449;19;20260;-23
2023/06/30 11:10:32;;;;;;;;;;;20.50;99.90;;;;;;4592489;19;19922;-25
2023/06/30 11:12:04;;;;;;;;;;;20.50;99.90;;;;;;4592927;19;20313;-24
2023/06/30 11:13:35;;;;;;;;;;;20.50;99.90;;;;;;4591035;19;19947;-22
2023/06/30 11:15:07;;;;;;;;;;;20.50;99.90;;;;;;4592251;19;19921;-22
2023/06/30 11:17:01;;;;;;;;;;;20.60;99.90;;;;;;4592451;19;19926;-22
2023/06/30 11:18:33;;;;;;;;;;;20.60;99.90;;;;;;4591713;19;20238;-22
2023/06/30 11:20:11;;;;;;;;;;;20.60;99.90;;;;;;4592045;19;19978;-26
2023/06/30 11:21:43;;;;;;;;;;;20.60;99.90;;;;;;4592343;19;19915;-25
2023/06/30 11:23:17;;;;;;;;;;;20.60;99.90;;;;;;4591042;19;19918;-23
2023/06/30 11:24:48;;;;;;;;;;;20.60;99.90;;;;;;4592247;19;19923;-22
2023/06/30 11:26:19;;;;;;;;;;;20.70;99.90;;;;;;4590194;19;20341;-26
2023/06/30 11:27:51;;;;;;;;;;;20.70;99.90;;;;;;4591845;19;19914;-24
2023/06/30 11:29:24;;;;;;;;;;;20.70;99.90;;;;;;4591145;19;19926;-22
2023/06/30 11:30:54;;;;;;;;;;;20.70;99.90;;;;;;4590178;19;19974;-21
2023/06/30 11:32:26;;;;;;;;;;;20.70;99.90;;;;;;4590716;19;19923;-26
2023/06/30 11:33:58;;;;;;;;;;;20.70;99.90;;;;;;4591391;19;19921;-25
2023/06/30 11:35:31;;;;;;;;;;;20.80;99.90;;;;;;4591371;19;19919;-22
2023/06/30 11:37:05;;;;;;;;;;;20.70;99.90;;;;;;4591528;19;19919;-22
2023/06/30 11:38:45;;;;;;;;;;;20.70;99.90;;;;;;4590721;19;19955;-24
2023/06/30 11:40:16;;;;;;;;;;;20.70;99.90;;;;;;4591419;19;19915;-22
2023/06/30 11:41:47;;;;;;;;;;;20.70;99.90;;;;;;4590817;19;19918;-25
2023/06/30 11:43:22;;;;;;;;;;;20.70;99.90;;;;;;4591501;19;19919;-22
2023/06/30 11:44:53;;;;;;;;;;;20.70;99.90;;;;;;4592105;19;19911;-22
2023/06/30 11:46:24;;;;;;;;;;;20.80;99.90;;;;;;4592205;19;19927;-22
2023/06/30 11:47:55;;;;;;;;;;;20.80;99.90;;;;;;4592355;19;19911;-22
2023/06/30 11:49:26;;;;;;;;;;;20.80;99.90;;;;;;4591803;19;19930;-23
2023/06/30 11:50:58;;;;;;;;;;;20.70;99.90;;;;;;4591451;19;19923;-22
2023/06/30 11:52:32;;;;;;;;;;;20.70;99.90;;;;;;4590237;19;20285;-23
2023/06/30 11:54:03;;;;;;;;;;;20.70;99.90;;;;;;4591059;19;19936;-23
2023/06/30 11:55:35;;;;;;;;;;;20.80;99.90;;;;;;4590171;19;19923;-22
2023/06/30 11:57:06;;;;;;;;;;;20.80;99.90;;;;;;4590900;19;19930;-26
2023/06/30 11:58:37;;;;;;;;;;;20.80;99.90;;;;;;4592002;19;19937;-22
2023/06/30 12:00:11;;;;;;;;;;;20.80;99.90;;;;;;4590725;19;19942;-22
2023/06/30 12:01:42;;;;;;;;;;;20.80;99.90;;;;;;4590490;19;19911;-24
2023/06/30 12:03:14;;;;;;;;;;;20.80;99.90;;;;;;4591865;19;20348;-24
2023/06/30 12:04:46;;;;;;;;;;;20.80;99.90;;;;;;4591351;19;19915;-24
2023/06/30 12:06:18;;;;;;;;;;;20.80;99.90;;;;;;4592224;19;19915;-21
2023/06/30 12:07:52;;;;;;;;;;;20.80;99.90;;;;;;4589982;19;19922;-24
2023/06/30 12:09:24;;;;;;;;;;;20.80;99.90;;;;;;4590545;19;19922;-22
2023/06/30 12:10:55;;;;;;;;;;;20.80;99.90;;;;;;4591454;19;19918;-22
2023/06/30 12:12:26;;;;;;;;;;;20.80;99.90;;;;;;4591007;19;19919;-24
2023/06/30 12:13:58;;;;;;;;;;;20.80;99.90;;;;;;4591392;19;19922;-21
2023/06/30 12:15:29;;;;;;;;;;;20.80;99.90;;;;;;4591445;19;19914;-27
2023/06/30 12:17:02;;;;;;;;;;;20.80;99.90;;;;;;4591480;19;19918;-23
2023/06/30 12:18:38;;;;;;;;;;;20.80;99.90;;;;;;4590964;19;20272;-22
2023/06/30 12:20:10;;;;;;;;;;;20.80;99.90;;;;;;4591590;19;19948;-21
2023/06/30 12:21:59;;;;;;;;;;;20.80;99.90;;;;;;4590232;19;19918;-27
2023/06/30 12:23:30;;;;;;;;;;;20.80;99.90;;;;;;4591179;19;19918;-22
2023/06/30 12:25:02;;;;;;;;;;;20.80;99.90;;;;;;4591615;19;19931;-22
2023/06/30 12:26:33;;;;;;;;;;;20.80;99.90;;;;;;4590146;19;19932;-23
2023/06/30 12:28:07;;;;;;;;;;;20.80;99.90;;;;;;4588657;19;19942;-25
2023/06/30 12:29:38;;;;;;;;;;;20.80;99.90;;;;;;4590542;19;19982;-22
2023/06/30 12:31:09;;;;;;;;;;;20.80;99.90;;;;;;4588379;19;19978;-22
2023/06/30 12:32:41;;;;;;;;;;;20.80;99.90;;;;;;4589952;19;19940;-26
2023/06/30 12:34:13;;;;;;;;;;;20.80;99.90;;;;;;4590541;19;19915;-23